sensor_id;sensor_type;location;lat;lon;timestamp;P1;durP1;ratioP1;P2;durP2;ratioP2
9124;SDS011;4597;48.730;9.114;2023-03-05T00:01:22;23.30;;;12.67;;
9124;SDS011;4597;48.730;9.114;2023-03-05T00:03:51;22.00;;;11.10;;
9124;SDS011;4597;48.730;9.114;2023-03-05T00:06:22;24.00;;;12.90;;
9124;SDS011;4597;48.730;9.114;2023-03-05T00:08:49;21.03;;;11.60;;
9124;SDS011;4597;48.730;9.114;2023-03-05T00:11:17;19.87;;;11.90;;
9124;SDS011;4597;48.730;9.114;2023-03-05T00:13:43;19.97;;;12.40;;
9124;SDS011;4597;48.730;9.114;2023-03-05T00:16:09;21.03;;;12.87;;
9124;SDS011;4597;48.730;9.114;2023-03-05T00:18:37;23.93;;;12.90;;
9124;SDS011;4597;48.730;9.114;2023-03-05T00:21:03;21.80;;;11.73;;
9124;SDS011;4597;48.730;9.114;2023-03-05T00:23:29;24.57;;;11.87;;
9124;SDS011;4597;48.730;9.114;2023-03-05T00:25:55;20.57;;;11.77;;
9124;SDS011;4597;48.730;9.114;2023-03-05T00:28:21;21.53;;;12.33;;
9124;SDS011;4597;48.730;9.114;2023-03-05T00:30:46;22.17;;;12.00;;
9124;SDS011;4597;48.730;9.114;2023-03-05T00:33:12;20.90;;;12.20;;
9124;SDS011;4597;48.730;9.114;2023-03-05T00:35:39;21.50;;;9.90;;
9124;SDS011;4597;48.730;9.114;2023-03-05T00:38:05;25.20;;;11.07;;
9124;SDS011;4597;48.730;9.114;2023-03-05T00:40:33;22.00;;;11.03;;
9124;SDS011;4597;48.730;9.114;2023-03-05T00:43:00;19.13;;;10.20;;
9124;SDS011;4597;48.730;9.114;2023-03-05T00:45:26;20.57;;;10.83;;
9124;SDS011;4597;48.730;9.114;2023-03-05T00:47:51;20.53;;;10.53;;
9124;SDS011;4597;48.730;9.114;2023-03-05T00:50:17;20.13;;;11.13;;
9124;SDS011;4597;48.730;9.114;2023-03-05T00:52:42;17.87;;;10.33;;
9124;SDS011;4597;48.730;9.114;2023-03-05T00:55:08;19.13;;;9.93;;
9124;SDS011;4597;48.730;9.114;2023-03-05T00:57:33;20.20;;;10.57;;
9124;SDS011;4597;48.730;9.114;2023-03-05T00:59:59;23.10;;;11.67;;
9124;SDS011;4597;48.730;9.114;2023-03-05T01:02:24;18.40;;;10.63;;
9124;SDS011;4597;48.730;9.114;2023-03-05T01:04:50;22.93;;;10.97;;
9124;SDS011;4597;48.730;9.114;2023-03-05T01:07:16;21.67;;;10.97;;
9124;SDS011;4597;48.730;9.114;2023-03-05T01:09:41;17.37;;;10.77;;
9124;SDS011;4597;48.730;9.114;2023-03-05T01:12:07;22.67;;;10.73;;
9124;SDS011;4597;48.730;9.114;2023-03-05T01:14:32;20.50;;;10.57;;
9124;SDS011;4597;48.730;9.114;2023-03-05T01:16:59;18.80;;;10.27;;
9124;SDS011;4597;48.730;9.114;2023-03-05T01:19:25;20.47;;;10.67;;
9124;SDS011;4597;48.730;9.114;2023-03-05T01:21:50;21.97;;;11.03;;
9124;SDS011;4597;48.730;9.114;2023-03-05T01:24:16;20.40;;;10.33;;
9124;SDS011;4597;48.730;9.114;2023-03-05T01:26:41;17.77;;;10.30;;
9124;SDS011;4597;48.730;9.114;2023-03-05T01:29:07;19.87;;;10.03;;
9124;SDS011;4597;48.730;9.114;2023-03-05T01:31:32;19.57;;;10.87;;
9124;SDS011;4597;48.730;9.114;2023-03-05T01:33:58;18.30;;;9.37;;
9124;SDS011;4597;48.730;9.114;2023-03-05T01:36:24;21.10;;;10.47;;
9124;SDS011;4597;48.730;9.114;2023-03-05T01:38:50;22.20;;;10.03;;
9124;SDS011;4597;48.730;9.114;2023-03-05T01:41:16;16.97;;;9.47;;
9124;SDS011;4597;48.730;9.114;2023-03-05T01:43:42;17.67;;;9.57;;
9124;SDS011;4597;48.730;9.114;2023-03-05T01:48:38;19.00;;;9.90;;
9124;SDS011;4597;48.730;9.114;2023-03-05T01:51:06;17.57;;;9.40;;
9124;SDS011;4597;48.730;9.114;2023-03-05T01:53:32;18.03;;;10.23;;
9124;SDS011;4597;48.730;9.114;2023-03-05T01:55:57;17.77;;;9.47;;
9124;SDS011;4597;48.730;9.114;2023-03-05T01:58:23;17.87;;;9.63;;
9124;SDS011;4597;48.730;9.114;2023-03-05T02:00:51;20.10;;;10.10;;
9124;SDS011;4597;48.730;9.114;2023-03-05T02:03:18;15.60;;;9.73;;
9124;SDS011;4597;48.730;9.114;2023-03-05T02:05:46;16.53;;;9.67;;
9124;SDS011;4597;48.730;9.114;2023-03-05T02:08:13;20.30;;;10.37;;
9124;SDS011;4597;48.730;9.114;2023-03-05T02:10:41;22.57;;;10.80;;
9124;SDS011;4597;48.730;9.114;2023-03-05T02:13:09;22.43;;;9.80;;
9124;SDS011;4597;48.730;9.114;2023-03-05T02:15:38;20.27;;;10.03;;
9124;SDS011;4597;48.730;9.114;2023-03-05T02:18:04;20.70;;;9.60;;
9124;SDS011;4597;48.730;9.114;2023-03-05T02:20:41;18.93;;;10.17;;
9124;SDS011;4597;48.730;9.114;2023-03-05T02:23:13;19.17;;;9.10;;
9124;SDS011;4597;48.730;9.114;2023-03-05T02:25:39;21.60;;;10.43;;
9124;SDS011;4597;48.730;9.114;2023-03-05T02:30:32;15.77;;;9.50;;
9124;SDS011;4597;48.730;9.114;2023-03-05T02:32:59;15.63;;;9.33;;
9124;SDS011;4597;48.730;9.114;2023-03-05T02:35:24;20.50;;;10.83;;
9124;SDS011;4597;48.730;9.114;2023-03-05T02:37:50;16.50;;;9.73;;
9124;SDS011;4597;48.730;9.114;2023-03-05T02:40:16;19.13;;;10.00;;
9124;SDS011;4597;48.730;9.114;2023-03-05T02:42:41;20.17;;;9.93;;
9124;SDS011;4597;48.730;9.114;2023-03-05T02:45:08;20.73;;;10.23;;
9124;SDS011;4597;48.730;9.114;2023-03-05T02:47:34;16.37;;;9.30;;
9124;SDS011;4597;48.730;9.114;2023-03-05T02:50:00;16.60;;;9.40;;
9124;SDS011;4597;48.730;9.114;2023-03-05T02:52:26;15.93;;;9.07;;
9124;SDS011;4597;48.730;9.114;2023-03-05T02:54:53;16.70;;;9.73;;
9124;SDS011;4597;48.730;9.114;2023-03-05T02:57:19;19.33;;;10.40;;
9124;SDS011;4597;48.730;9.114;2023-03-05T02:59:45;19.40;;;9.87;;
9124;SDS011;4597;48.730;9.114;2023-03-05T03:02:11;18.73;;;9.53;;
9124;SDS011;4597;48.730;9.114;2023-03-05T03:04:37;17.30;;;9.23;;
9124;SDS011;4597;48.730;9.114;2023-03-05T03:07:02;15.70;;;8.83;;
9124;SDS011;4597;48.730;9.114;2023-03-05T03:09:28;15.37;;;9.60;;
9124;SDS011;4597;48.730;9.114;2023-03-05T03:11:54;16.80;;;9.70;;
9124;SDS011;4597;48.730;9.114;2023-03-05T03:14:19;15.63;;;9.40;;
9124;SDS011;4597;48.730;9.114;2023-03-05T03:16:45;18.77;;;9.23;;
9124;SDS011;4597;48.730;9.114;2023-03-05T03:19:11;15.27;;;9.00;;
9124;SDS011;4597;48.730;9.114;2023-03-05T03:21:37;16.73;;;9.40;;
9124;SDS011;4597;48.730;9.114;2023-03-05T03:24:03;19.70;;;9.63;;
9124;SDS011;4597;48.730;9.114;2023-03-05T03:26:29;17.03;;;8.73;;
9124;SDS011;4597;48.730;9.114;2023-03-05T03:28:55;15.67;;;9.47;;
9124;SDS011;4597;48.730;9.114;2023-03-05T03:31:21;17.07;;;9.03;;
9124;SDS011;4597;48.730;9.114;2023-03-05T03:33:47;16.03;;;8.53;;
9124;SDS011;4597;48.730;9.114;2023-03-05T03:36:13;16.67;;;9.27;;
9124;SDS011;4597;48.730;9.114;2023-03-05T03:38:38;18.20;;;8.57;;
9124;SDS011;4597;48.730;9.114;2023-03-05T03:41:05;14.77;;;8.77;;
9124;SDS011;4597;48.730;9.114;2023-03-05T03:43:31;22.37;;;10.17;;
9124;SDS011;4597;48.730;9.114;2023-03-05T03:45:58;15.37;;;8.93;;
9124;SDS011;4597;48.730;9.114;2023-03-05T03:48:23;15.57;;;8.73;;
9124;SDS011;4597;48.730;9.114;2023-03-05T03:50:49;19.23;;;9.50;;
9124;SDS011;4597;48.730;9.114;2023-03-05T03:53:14;18.17;;;8.80;;
9124;SDS011;4597;48.730;9.114;2023-03-05T03:55:41;15.23;;;8.33;;
9124;SDS011;4597;48.730;9.114;2023-03-05T03:58:07;17.00;;;9.60;;
9124;SDS011;4597;48.730;9.114;2023-03-05T04:00:33;15.90;;;8.57;;
9124;SDS011;4597;48.730;9.114;2023-03-05T04:02:58;19.77;;;9.03;;
9124;SDS011;4597;48.730;9.114;2023-03-05T04:05:24;18.07;;;8.60;;
9124;SDS011;4597;48.730;9.114;2023-03-05T04:07:49;17.70;;;9.63;;
9124;SDS011;4597;48.730;9.114;2023-03-05T04:10:15;15.67;;;8.07;;
9124;SDS011;4597;48.730;9.114;2023-03-05T04:12:41;15.83;;;9.50;;
9124;SDS011;4597;48.730;9.114;2023-03-05T04:15:07;16.57;;;9.10;;
9124;SDS011;4597;48.730;9.114;2023-03-05T04:17:34;15.97;;;9.50;;
9124;SDS011;4597;48.730;9.114;2023-03-05T04:20:00;15.73;;;8.97;;
9124;SDS011;4597;48.730;9.114;2023-03-05T04:22:25;17.43;;;8.83;;
9124;SDS011;4597;48.730;9.114;2023-03-05T04:24:51;17.77;;;8.67;;
9124;SDS011;4597;48.730;9.114;2023-03-05T04:27:17;23.20;;;9.33;;
9124;SDS011;4597;48.730;9.114;2023-03-05T04:29:42;18.27;;;8.43;;
9124;SDS011;4597;48.730;9.114;2023-03-05T04:32:08;18.60;;;9.17;;
9124;SDS011;4597;48.730;9.114;2023-03-05T04:34:33;16.00;;;9.07;;
9124;SDS011;4597;48.730;9.114;2023-03-05T04:37:01;21.90;;;9.07;;
9124;SDS011;4597;48.730;9.114;2023-03-05T04:39:26;17.90;;;8.63;;
9124;SDS011;4597;48.730;9.114;2023-03-05T04:41:52;18.97;;;9.13;;
9124;SDS011;4597;48.730;9.114;2023-03-05T04:44:18;16.20;;;8.40;;
9124;SDS011;4597;48.730;9.114;2023-03-05T04:46:43;17.47;;;8.67;;
9124;SDS011;4597;48.730;9.114;2023-03-05T04:49:09;16.30;;;8.80;;
9124;SDS011;4597;48.730;9.114;2023-03-05T04:51:34;15.47;;;8.03;;
9124;SDS011;4597;48.730;9.114;2023-03-05T04:54:00;15.43;;;8.30;;
9124;SDS011;4597;48.730;9.114;2023-03-05T04:56:25;18.50;;;9.57;;
9124;SDS011;4597;48.730;9.114;2023-03-05T04:58:51;19.47;;;9.27;;
9124;SDS011;4597;48.730;9.114;2023-03-05T05:01:16;16.73;;;8.73;;
9124;SDS011;4597;48.730;9.114;2023-03-05T05:03:42;19.07;;;9.03;;
9124;SDS011;4597;48.730;9.114;2023-03-05T05:06:08;16.70;;;9.43;;
9124;SDS011;4597;48.730;9.114;2023-03-05T05:08:33;18.30;;;8.53;;
9124;SDS011;4597;48.730;9.114;2023-03-05T05:11:01;18.00;;;9.33;;
9124;SDS011;4597;48.730;9.114;2023-03-05T05:13:29;16.17;;;8.10;;
9124;SDS011;4597;48.730;9.114;2023-03-05T05:15:55;17.60;;;9.50;;
9124;SDS011;4597;48.730;9.114;2023-03-05T05:18:21;17.53;;;8.43;;
9124;SDS011;4597;48.730;9.114;2023-03-05T05:20:47;14.03;;;7.90;;
9124;SDS011;4597;48.730;9.114;2023-03-05T05:23:13;17.03;;;8.90;;
9124;SDS011;4597;48.730;9.114;2023-03-05T05:25:39;16.13;;;8.50;;
9124;SDS011;4597;48.730;9.114;2023-03-05T05:28:05;17.80;;;9.17;;
9124;SDS011;4597;48.730;9.114;2023-03-05T05:30:30;15.57;;;9.10;;
9124;SDS011;4597;48.730;9.114;2023-03-05T05:32:56;17.87;;;8.73;;
9124;SDS011;4597;48.730;9.114;2023-03-05T05:35:22;17.70;;;8.83;;
9124;SDS011;4597;48.730;9.114;2023-03-05T05:37:47;14.77;;;8.13;;
9124;SDS011;4597;48.730;9.114;2023-03-05T05:40:13;16.20;;;8.37;;
9124;SDS011;4597;48.730;9.114;2023-03-05T05:42:39;14.53;;;8.10;;
9124;SDS011;4597;48.730;9.114;2023-03-05T05:45:04;17.47;;;8.87;;
9124;SDS011;4597;48.730;9.114;2023-03-05T05:47:30;17.47;;;9.13;;
9124;SDS011;4597;48.730;9.114;2023-03-05T05:49:56;15.57;;;9.17;;
9124;SDS011;4597;48.730;9.114;2023-03-05T05:52:22;20.63;;;8.23;;
9124;SDS011;4597;48.730;9.114;2023-03-05T05:54:47;19.80;;;8.70;;
9124;SDS011;4597;48.730;9.114;2023-03-05T05:57:13;19.27;;;9.03;;
9124;SDS011;4597;48.730;9.114;2023-03-05T05:59:38;17.50;;;8.77;;
9124;SDS011;4597;48.730;9.114;2023-03-05T06:02:04;21.60;;;9.03;;
9124;SDS011;4597;48.730;9.114;2023-03-05T06:04:31;18.67;;;9.63;;
9124;SDS011;4597;48.730;9.114;2023-03-05T06:06:58;19.33;;;9.00;;
9124;SDS011;4597;48.730;9.114;2023-03-05T06:09:24;20.00;;;9.57;;
9124;SDS011;4597;48.730;9.114;2023-03-05T06:11:50;19.47;;;9.33;;
9124;SDS011;4597;48.730;9.114;2023-03-05T06:14:16;19.03;;;9.53;;
9124;SDS011;4597;48.730;9.114;2023-03-05T06:16:41;20.13;;;9.57;;
9124;SDS011;4597;48.730;9.114;2023-03-05T06:19:07;19.10;;;10.03;;
9124;SDS011;4597;48.730;9.114;2023-03-05T06:21:35;19.70;;;10.20;;
9124;SDS011;4597;48.730;9.114;2023-03-05T06:24:01;20.13;;;9.87;;
9124;SDS011;4597;48.730;9.114;2023-03-05T06:26:27;20.83;;;10.27;;
9124;SDS011;4597;48.730;9.114;2023-03-05T06:28:53;20.50;;;10.93;;
9124;SDS011;4597;48.730;9.114;2023-03-05T06:31:23;16.67;;;9.43;;
9124;SDS011;4597;48.730;9.114;2023-03-05T06:33:50;16.83;;;8.87;;
9124;SDS011;4597;48.730;9.114;2023-03-05T06:36:17;19.33;;;8.93;;
9124;SDS011;4597;48.730;9.114;2023-03-05T06:38:44;20.63;;;9.50;;
9124;SDS011;4597;48.730;9.114;2023-03-05T06:41:14;18.03;;;9.60;;
9124;SDS011;4597;48.730;9.114;2023-03-05T06:43:42;16.07;;;9.20;;
9124;SDS011;4597;48.730;9.114;2023-03-05T06:48:42;19.70;;;9.63;;
9124;SDS011;4597;48.730;9.114;2023-03-05T06:51:11;17.00;;;9.67;;
9124;SDS011;4597;48.730;9.114;2023-03-05T06:53:47;17.53;;;9.07;;
9124;SDS011;4597;48.730;9.114;2023-03-05T06:56:13;19.97;;;9.10;;
9124;SDS011;4597;48.730;9.114;2023-03-05T06:58:40;21.97;;;9.87;;
9124;SDS011;4597;48.730;9.114;2023-03-05T07:01:07;16.37;;;8.83;;
9124;SDS011;4597;48.730;9.114;2023-03-05T07:03:32;15.97;;;9.00;;
9124;SDS011;4597;48.730;9.114;2023-03-05T07:06:06;18.00;;;9.20;;
9124;SDS011;4597;48.730;9.114;2023-03-05T07:08:33;17.87;;;9.30;;
9124;SDS011;4597;48.730;9.114;2023-03-05T07:10:59;16.10;;;8.43;;
9124;SDS011;4597;48.730;9.114;2023-03-05T07:13:25;19.63;;;9.27;;
9124;SDS011;4597;48.730;9.114;2023-03-05T07:15:51;19.87;;;9.07;;
9124;SDS011;4597;48.730;9.114;2023-03-05T07:18:17;16.47;;;9.37;;
9124;SDS011;4597;48.730;9.114;2023-03-05T07:20:42;19.23;;;10.10;;
9124;SDS011;4597;48.730;9.114;2023-03-05T07:23:08;18.47;;;9.97;;
9124;SDS011;4597;48.730;9.114;2023-03-05T07:25:37;16.60;;;9.40;;
9124;SDS011;4597;48.730;9.114;2023-03-05T07:28:03;19.00;;;9.60;;
9124;SDS011;4597;48.730;9.114;2023-03-05T07:30:30;16.73;;;8.87;;
9124;SDS011;4597;48.730;9.114;2023-03-05T07:32:56;16.70;;;8.97;;
9124;SDS011;4597;48.730;9.114;2023-03-05T07:35:21;18.67;;;10.40;;
9124;SDS011;4597;48.730;9.114;2023-03-05T07:37:48;20.13;;;9.17;;
9124;SDS011;4597;48.730;9.114;2023-03-05T07:40:16;18.03;;;9.87;;
9124;SDS011;4597;48.730;9.114;2023-03-05T07:42:41;16.83;;;9.80;;
9124;SDS011;4597;48.730;9.114;2023-03-05T07:45:07;20.87;;;9.80;;
9124;SDS011;4597;48.730;9.114;2023-03-05T07:47:33;19.80;;;9.87;;
9124;SDS011;4597;48.730;9.114;2023-03-05T07:49:59;16.83;;;9.63;;
9124;SDS011;4597;48.730;9.114;2023-03-05T07:52:25;21.33;;;10.03;;
9124;SDS011;4597;48.730;9.114;2023-03-05T07:54:51;17.27;;;9.73;;
9124;SDS011;4597;48.730;9.114;2023-03-05T07:57:16;20.30;;;10.30;;
9124;SDS011;4597;48.730;9.114;2023-03-05T07:59:42;20.10;;;10.97;;
9124;SDS011;4597;48.730;9.114;2023-03-05T08:02:11;18.40;;;9.93;;
9124;SDS011;4597;48.730;9.114;2023-03-05T08:04:37;20.63;;;9.70;;
9124;SDS011;4597;48.730;9.114;2023-03-05T08:07:03;19.50;;;9.63;;
9124;SDS011;4597;48.730;9.114;2023-03-05T08:09:29;17.33;;;10.67;;
9124;SDS011;4597;48.730;9.114;2023-03-05T08:11:54;20.93;;;10.63;;
9124;SDS011;4597;48.730;9.114;2023-03-05T08:14:20;22.27;;;11.60;;
9124;SDS011;4597;48.730;9.114;2023-03-05T08:16:46;19.33;;;10.57;;
9124;SDS011;4597;48.730;9.114;2023-03-05T08:19:16;20.93;;;10.70;;
9124;SDS011;4597;48.730;9.114;2023-03-05T08:21:43;24.00;;;12.17;;
9124;SDS011;4597;48.730;9.114;2023-03-05T08:24:10;18.83;;;11.03;;
9124;SDS011;4597;48.730;9.114;2023-03-05T08:26:37;19.90;;;10.80;;
9124;SDS011;4597;48.730;9.114;2023-03-05T08:29:04;20.90;;;11.13;;
9124;SDS011;4597;48.730;9.114;2023-03-05T08:31:30;20.83;;;11.63;;
9124;SDS011;4597;48.730;9.114;2023-03-05T08:33:57;28.07;;;12.27;;
9124;SDS011;4597;48.730;9.114;2023-03-05T08:36:24;19.50;;;10.97;;
9124;SDS011;4597;48.730;9.114;2023-03-05T08:38:49;23.83;;;11.37;;
9124;SDS011;4597;48.730;9.114;2023-03-05T08:41:15;23.77;;;12.67;;
9124;SDS011;4597;48.730;9.114;2023-03-05T08:43:42;20.10;;;11.80;;
9124;SDS011;4597;48.730;9.114;2023-03-05T08:46:09;21.57;;;12.07;;
9124;SDS011;4597;48.730;9.114;2023-03-05T08:48:38;24.30;;;11.47;;
9124;SDS011;4597;48.730;9.114;2023-03-05T08:51:05;21.13;;;11.60;;
9124;SDS011;4597;48.730;9.114;2023-03-05T08:53:32;19.33;;;10.33;;
9124;SDS011;4597;48.730;9.114;2023-03-05T08:55:57;20.53;;;10.60;;
9124;SDS011;4597;48.730;9.114;2023-03-05T08:58:23;19.03;;;10.57;;
9124;SDS011;4597;48.730;9.114;2023-03-05T09:00:49;18.60;;;11.40;;
9124;SDS011;4597;48.730;9.114;2023-03-05T09:03:16;15.83;;;9.60;;
9124;SDS011;4597;48.730;9.114;2023-03-05T09:05:42;18.80;;;10.60;;
9124;SDS011;4597;48.730;9.114;2023-03-05T09:08:07;22.97;;;12.83;;
9124;SDS011;4597;48.730;9.114;2023-03-05T09:10:33;19.00;;;11.23;;
9124;SDS011;4597;48.730;9.114;2023-03-05T09:12:58;22.53;;;10.17;;
9124;SDS011;4597;48.730;9.114;2023-03-05T09:15:24;21.00;;;11.00;;
9124;SDS011;4597;48.730;9.114;2023-03-05T09:17:49;22.70;;;11.77;;
9124;SDS011;4597;48.730;9.114;2023-03-05T09:20:15;22.30;;;11.53;;
9124;SDS011;4597;48.730;9.114;2023-03-05T09:22:41;21.90;;;12.10;;
9124;SDS011;4597;48.730;9.114;2023-03-05T09:25:07;23.77;;;10.97;;
9124;SDS011;4597;48.730;9.114;2023-03-05T09:27:35;18.00;;;10.37;;
9124;SDS011;4597;48.730;9.114;2023-03-05T09:30:02;17.40;;;10.17;;
9124;SDS011;4597;48.730;9.114;2023-03-05T09:32:28;18.67;;;11.17;;
9124;SDS011;4597;48.730;9.114;2023-03-05T09:34:54;20.90;;;11.07;;
9124;SDS011;4597;48.730;9.114;2023-03-05T09:37:20;21.13;;;10.80;;
9124;SDS011;4597;48.730;9.114;2023-03-05T09:39:45;20.00;;;11.33;;
9124;SDS011;4597;48.730;9.114;2023-03-05T09:45:02;19.87;;;11.63;;
9124;SDS011;4597;48.730;9.114;2023-03-05T09:50:50;19.23;;;12.00;;
9124;SDS011;4597;48.730;9.114;2023-03-05T09:59:01;18.13;;;10.80;;
9124;SDS011;4597;48.730;9.114;2023-03-05T10:01:38;20.13;;;11.40;;
9124;SDS011;4597;48.730;9.114;2023-03-05T10:14:51;20.43;;;11.47;;
9124;SDS011;4597;48.730;9.114;2023-03-05T10:31:45;22.07;;;12.60;;
9124;SDS011;4597;48.730;9.114;2023-03-05T10:34:27;16.93;;;12.00;;
9124;SDS011;4597;48.730;9.114;2023-03-05T10:45:18;18.73;;;11.57;;
9124;SDS011;4597;48.730;9.114;2023-03-05T10:47:49;18.10;;;10.37;;
9124;SDS011;4597;48.730;9.114;2023-03-05T10:50:21;15.90;;;10.20;;
9124;SDS011;4597;48.730;9.114;2023-03-05T10:52:54;15.20;;;10.37;;
9124;SDS011;4597;48.730;9.114;2023-03-05T10:55:32;16.77;;;10.00;;
9124;SDS011;4597;48.730;9.114;2023-03-05T10:57:57;15.93;;;10.07;;
9124;SDS011;4597;48.730;9.114;2023-03-05T11:00:24;16.50;;;9.80;;
9124;SDS011;4597;48.730;9.114;2023-03-05T11:02:53;16.63;;;10.70;;
9124;SDS011;4597;48.730;9.114;2023-03-05T11:05:35;18.20;;;10.53;;
9124;SDS011;4597;48.730;9.114;2023-03-05T11:11:11;17.53;;;10.63;;
9124;SDS011;4597;48.730;9.114;2023-03-05T11:13:43;17.87;;;11.37;;
9124;SDS011;4597;48.730;9.114;2023-03-05T11:16:22;18.90;;;10.57;;
9124;SDS011;4597;48.730;9.114;2023-03-05T11:18:52;16.77;;;10.77;;
9124;SDS011;4597;48.730;9.114;2023-03-05T11:21:35;15.57;;;10.73;;
9124;SDS011;4597;48.730;9.114;2023-03-05T11:24:17;15.60;;;11.17;;
9124;SDS011;4597;48.730;9.114;2023-03-05T11:26:47;20.67;;;11.07;;
9124;SDS011;4597;48.730;9.114;2023-03-05T11:29:27;14.87;;;10.37;;
9124;SDS011;4597;48.730;9.114;2023-03-05T11:31:55;17.20;;;11.47;;
9124;SDS011;4597;48.730;9.114;2023-03-05T11:34:38;18.10;;;10.90;;
9124;SDS011;4597;48.730;9.114;2023-03-05T11:37:04;15.33;;;10.70;;
9124;SDS011;4597;48.730;9.114;2023-03-05T11:39:31;15.30;;;10.23;;
9124;SDS011;4597;48.730;9.114;2023-03-05T11:42:05;18.27;;;10.10;;
9124;SDS011;4597;48.730;9.114;2023-03-05T11:44:48;16.67;;;10.80;;
9124;SDS011;4597;48.730;9.114;2023-03-05T11:47:32;18.50;;;10.73;;
9124;SDS011;4597;48.730;9.114;2023-03-05T11:50:11;17.30;;;10.33;;
9124;SDS011;4597;48.730;9.114;2023-03-05T11:52:46;15.20;;;9.90;;
9124;SDS011;4597;48.730;9.114;2023-03-05T11:55:14;17.07;;;10.47;;
9124;SDS011;4597;48.730;9.114;2023-03-05T11:57:47;15.10;;;9.57;;
9124;SDS011;4597;48.730;9.114;2023-03-05T12:00:16;15.10;;;9.57;;
9124;SDS011;4597;48.730;9.114;2023-03-05T12:02:49;19.67;;;13.17;;
9124;SDS011;4597;48.730;9.114;2023-03-05T12:05:18;18.80;;;13.63;;
9124;SDS011;4597;48.730;9.114;2023-03-05T12:07:46;13.83;;;9.57;;
9124;SDS011;4597;48.730;9.114;2023-03-05T12:10:19;16.87;;;9.83;;
9124;SDS011;4597;48.730;9.114;2023-03-05T12:12:58;13.93;;;9.10;;
9124;SDS011;4597;48.730;9.114;2023-03-05T12:15:48;13.77;;;9.57;;
9124;SDS011;4597;48.730;9.114;2023-03-05T12:18:51;14.07;;;9.10;;
9124;SDS011;4597;48.730;9.114;2023-03-05T12:26:18;15.60;;;9.53;;
9124;SDS011;4597;48.730;9.114;2023-03-05T12:29:43;15.00;;;9.50;;
9124;SDS011;4597;48.730;9.114;2023-03-05T12:32:53;13.43;;;9.47;;
9124;SDS011;4597;48.730;9.114;2023-03-05T12:35:00;16.30;;;9.77;;
9124;SDS011;4597;48.730;9.114;2023-03-05T12:40:22;16.33;;;9.23;;
9124;SDS011;4597;48.730;9.114;2023-03-05T12:43:00;14.57;;;9.27;;
9124;SDS011;4597;48.730;9.114;2023-03-05T12:52:54;15.80;;;8.87;;
9124;SDS011;4597;48.730;9.114;2023-03-05T12:58:08;16.00;;;10.50;;
9124;SDS011;4597;48.730;9.114;2023-03-05T13:00:42;15.70;;;10.33;;
9124;SDS011;4597;48.730;9.114;2023-03-05T13:03:19;15.87;;;11.47;;
9124;SDS011;4597;48.730;9.114;2023-03-05T13:05:51;15.03;;;8.93;;
9124;SDS011;4597;48.730;9.114;2023-03-05T13:08:23;14.87;;;9.17;;
9124;SDS011;4597;48.730;9.114;2023-03-05T13:11:00;15.57;;;9.07;;
9124;SDS011;4597;48.730;9.114;2023-03-05T13:13:41;12.40;;;7.60;;
9124;SDS011;4597;48.730;9.114;2023-03-05T13:16:15;13.27;;;7.77;;
9124;SDS011;4597;48.730;9.114;2023-03-05T13:18:44;11.77;;;7.80;;
9124;SDS011;4597;48.730;9.114;2023-03-05T13:21:12;12.20;;;8.17;;
9124;SDS011;4597;48.730;9.114;2023-03-05T13:23:47;13.90;;;8.50;;
9124;SDS011;4597;48.730;9.114;2023-03-05T13:26:16;12.60;;;7.87;;
9124;SDS011;4597;48.730;9.114;2023-03-05T13:28:43;10.90;;;7.90;;
9124;SDS011;4597;48.730;9.114;2023-03-05T13:31:29;11.50;;;8.43;;
9124;SDS011;4597;48.730;9.114;2023-03-05T13:34:10;13.17;;;8.50;;
9124;SDS011;4597;48.730;9.114;2023-03-05T13:36:38;14.00;;;9.50;;
9124;SDS011;4597;48.730;9.114;2023-03-05T13:39:04;15.80;;;9.37;;
9124;SDS011;4597;48.730;9.114;2023-03-05T13:41:31;13.57;;;9.37;;
9124;SDS011;4597;48.730;9.114;2023-03-05T13:44:00;15.10;;;10.60;;
9124;SDS011;4597;48.730;9.114;2023-03-05T13:49:21;14.13;;;9.83;;
9124;SDS011;4597;48.730;9.114;2023-03-05T13:51:50;13.23;;;8.63;;
9124;SDS011;4597;48.730;9.114;2023-03-05T13:54:17;14.57;;;9.80;;
9124;SDS011;4597;48.730;9.114;2023-03-05T13:56:48;14.97;;;9.33;;
9124;SDS011;4597;48.730;9.114;2023-03-05T13:59:21;16.20;;;9.43;;
9124;SDS011;4597;48.730;9.114;2023-03-05T14:01:48;12.70;;;8.53;;
9124;SDS011;4597;48.730;9.114;2023-03-05T14:09:27;14.67;;;8.70;;
9124;SDS011;4597;48.730;9.114;2023-03-05T14:14:22;12.67;;;9.90;;
9124;SDS011;4597;48.730;9.114;2023-03-05T14:16:50;14.60;;;8.70;;
9124;SDS011;4597;48.730;9.114;2023-03-05T14:22:33;12.80;;;8.03;;
9124;SDS011;4597;48.730;9.114;2023-03-05T14:25:01;12.40;;;8.10;;
9124;SDS011;4597;48.730;9.114;2023-03-05T14:27:30;16.30;;;10.03;;
9124;SDS011;4597;48.730;9.114;2023-03-05T14:30:00;14.17;;;8.13;;
9124;SDS011;4597;48.730;9.114;2023-03-05T14:32:45;11.37;;;7.77;;
9124;SDS011;4597;48.730;9.114;2023-03-05T14:35:16;14.17;;;8.23;;
9124;SDS011;4597;48.730;9.114;2023-03-05T14:37:44;13.00;;;8.93;;
9124;SDS011;4597;48.730;9.114;2023-03-05T14:42:51;13.90;;;9.83;;
9124;SDS011;4597;48.730;9.114;2023-03-05T14:45:21;13.27;;;8.93;;
9124;SDS011;4597;48.730;9.114;2023-03-05T14:47:49;15.40;;;8.27;;
9124;SDS011;4597;48.730;9.114;2023-03-05T14:50:17;12.17;;;8.07;;
9124;SDS011;4597;48.730;9.114;2023-03-05T14:52:44;13.40;;;8.50;;
9124;SDS011;4597;48.730;9.114;2023-03-05T14:55:30;12.53;;;8.40;;
9124;SDS011;4597;48.730;9.114;2023-03-05T14:58:01;12.73;;;8.77;;
9124;SDS011;4597;48.730;9.114;2023-03-05T15:00:31;16.20;;;11.17;;
9124;SDS011;4597;48.730;9.114;2023-03-05T15:02:57;15.73;;;9.37;;
9124;SDS011;4597;48.730;9.114;2023-03-05T15:05:23;19.00;;;10.13;;
9124;SDS011;4597;48.730;9.114;2023-03-05T15:07:49;22.53;;;13.27;;
9124;SDS011;4597;48.730;9.114;2023-03-05T15:10:19;20.57;;;13.50;;
9124;SDS011;4597;48.730;9.114;2023-03-05T15:12:47;19.23;;;11.70;;
9124;SDS011;4597;48.730;9.114;2023-03-05T15:15:14;19.13;;;12.40;;
9124;SDS011;4597;48.730;9.114;2023-03-05T15:17:42;19.40;;;11.90;;
9124;SDS011;4597;48.730;9.114;2023-03-05T15:20:13;17.40;;;11.00;;
9124;SDS011;4597;48.730;9.114;2023-03-05T15:22:41;19.60;;;11.43;;
9124;SDS011;4597;48.730;9.114;2023-03-05T15:25:06;17.77;;;12.20;;
9124;SDS011;4597;48.730;9.114;2023-03-05T15:27:32;19.40;;;12.30;;
9124;SDS011;4597;48.730;9.114;2023-03-05T15:29:58;18.33;;;11.13;;
9124;SDS011;4597;48.730;9.114;2023-03-05T15:32:27;17.97;;;12.83;;
9124;SDS011;4597;48.730;9.114;2023-03-05T15:34:54;21.03;;;13.10;;
9124;SDS011;4597;48.730;9.114;2023-03-05T15:37:20;20.27;;;12.00;;
9124;SDS011;4597;48.730;9.114;2023-03-05T15:39:46;19.13;;;13.40;;
9124;SDS011;4597;48.730;9.114;2023-03-05T15:42:11;16.87;;;11.83;;
9124;SDS011;4597;48.730;9.114;2023-03-05T15:44:37;23.77;;;14.00;;
9124;SDS011;4597;48.730;9.114;2023-03-05T15:47:04;22.20;;;13.33;;
9124;SDS011;4597;48.730;9.114;2023-03-05T15:49:29;18.13;;;12.90;;
9124;SDS011;4597;48.730;9.114;2023-03-05T15:51:55;20.10;;;13.53;;
9124;SDS011;4597;48.730;9.114;2023-03-05T15:54:21;19.90;;;13.20;;
9124;SDS011;4597;48.730;9.114;2023-03-05T15:56:47;20.93;;;11.50;;
9124;SDS011;4597;48.730;9.114;2023-03-05T15:59:13;20.07;;;12.30;;
9124;SDS011;4597;48.730;9.114;2023-03-05T16:01:38;19.73;;;13.27;;
9124;SDS011;4597;48.730;9.114;2023-03-05T16:04:08;18.43;;;12.57;;
9124;SDS011;4597;48.730;9.114;2023-03-05T16:06:34;22.23;;;13.40;;
9124;SDS011;4597;48.730;9.114;2023-03-05T16:09:03;18.80;;;13.40;;
9124;SDS011;4597;48.730;9.114;2023-03-05T16:11:30;19.43;;;12.67;;
9124;SDS011;4597;48.730;9.114;2023-03-05T16:13:58;20.70;;;12.23;;
9124;SDS011;4597;48.730;9.114;2023-03-05T16:16:27;19.57;;;12.00;;
9124;SDS011;4597;48.730;9.114;2023-03-05T16:18:53;26.30;;;14.37;;
9124;SDS011;4597;48.730;9.114;2023-03-05T16:21:20;18.87;;;12.77;;
9124;SDS011;4597;48.730;9.114;2023-03-05T16:23:45;20.87;;;11.93;;
9124;SDS011;4597;48.730;9.114;2023-03-05T16:26:11;20.00;;;11.63;;
9124;SDS011;4597;48.730;9.114;2023-03-05T16:28:36;19.40;;;12.80;;
9124;SDS011;4597;48.730;9.114;2023-03-05T16:31:02;18.17;;;11.97;;